sensor_id;sensor_type;location;lat;lon;timestamp;pressure;altitude;pressure_sealevel;temperature;humidity
9335;BME280;4706;41.844;26.082;2023-02-19T00:01:10;101077.94;;;10.90;66.38
9335;BME280;4706;41.844;26.082;2023-02-19T00:03:36;101072.41;;;10.95;66.16
9335;BME280;4706;41.844;26.082;2023-02-19T00:06:04;101067.66;;;10.72;67.03
9335;BME280;4706;41.844;26.082;2023-02-19T00:08:31;101076.03;;;10.61;67.57
9335;BME280;4706;41.844;26.082;2023-02-19T00:11:01;101062.31;;;10.56;67.42
9335;BME280;4706;41.844;26.082;2023-02-19T00:13:27;101066.22;;;10.50;67.75
9335;BME280;4706;41.844;26.082;2023-02-19T00:15:53;101051.44;;;10.41;68.27
9335;BME280;4706;41.844;26.082;2023-02-19T00:18:18;101055.50;;;10.49;67.66
9335;BME280;4706;41.844;26.082;2023-02-19T00:20:44;101062.19;;;10.42;68.01
9335;BME280;4706;41.844;26.082;2023-02-19T00:23:09;101042.44;;;10.35;67.87
9335;BME280;4706;41.844;26.082;2023-02-19T00:25:36;101042.69;;;10.39;67.74
9335;BME280;4706;41.844;26.082;2023-02-19T00:28:02;101040.56;;;10.31;67.69
9335;BME280;4706;41.844;26.082;2023-02-19T00:30:28;101035.66;;;10.17;68.39
9335;BME280;4706;41.844;26.082;2023-02-19T00:32:54;101039.53;;;10.16;68.64
9335;BME280;4706;41.844;26.082;2023-02-19T00:35:20;101034.81;;;10.27;68.34
9335;BME280;4706;41.844;26.082;2023-02-19T00:37:45;101035.09;;;10.20;68.61
9335;BME280;4706;41.844;26.082;2023-02-19T00:40:11;101040.81;;;10.29;68.57
9335;BME280;4706;41.844;26.082;2023-02-19T00:42:36;101034.19;;;10.35;68.20
9335;BME280;4706;41.844;26.082;2023-02-19T00:45:02;101029.56;;;10.31;68.27
9335;BME280;4706;41.844;26.082;2023-02-19T00:47:28;101025.47;;;10.18;68.47
9335;BME280;4706;41.844;26.082;2023-02-19T00:49:53;101018.41;;;10.12;68.40
9335;BME280;4706;41.844;26.082;2023-02-19T00:52:19;101014.56;;;10.08;68.58
9335;BME280;4706;41.844;26.082;2023-02-19T00:54:44;101008.00;;;10.04;68.81
9335;BME280;4706;41.844;26.082;2023-02-19T00:57:10;101002.50;;;10.04;68.26
9335;BME280;4706;41.844;26.082;2023-02-19T00:59:35;101000.34;;;10.01;68.01
9335;BME280;4706;41.844;26.082;2023-02-19T01:02:01;101005.59;;;9.97;67.80
9335;BME280;4706;41.844;26.082;2023-02-19T01:04:27;101000.38;;;9.95;68.00
9335;BME280;4706;41.844;26.082;2023-02-19T01:06:52;100988.31;;;9.91;68.20
9335;BME280;4706;41.844;26.082;2023-02-19T01:09:18;100991.84;;;9.97;67.61
9335;BME280;4706;41.844;26.082;2023-02-19T01:11:43;100986.44;;;9.87;67.89
9335;BME280;4706;41.844;26.082;2023-02-19T01:14:09;100986.50;;;9.77;68.41
9335;BME280;4706;41.844;26.082;2023-02-19T01:16:35;100975.78;;;9.75;68.47
9335;BME280;4706;41.844;26.082;2023-02-19T01:19:00;100963.38;;;9.83;67.87
9335;BME280;4706;41.844;26.082;2023-02-19T01:21:27;100967.50;;;9.80;67.78
9335;BME280;4706;41.844;26.082;2023-02-19T01:23:54;100973.06;;;9.75;68.23
9335;BME280;4706;41.844;26.082;2023-02-19T01:26:23;100981.69;;;9.97;67.96
9335;BME280;4706;41.844;26.082;2023-02-19T01:28:49;100974.88;;;9.85;67.45
9335;BME280;4706;41.844;26.082;2023-02-19T01:31:20;100988.97;;;9.78;68.14
9335;BME280;4706;41.844;26.082;2023-02-19T01:33:49;100978.53;;;9.75;68.54
9335;BME280;4706;41.844;26.082;2023-02-19T01:36:15;100979.13;;;9.72;68.40
9335;BME280;4706;41.844;26.082;2023-02-19T01:38:41;100977.38;;;9.86;67.50
9335;BME280;4706;41.844;26.082;2023-02-19T01:41:10;100967.63;;;9.65;67.93
9335;BME280;4706;41.844;26.082;2023-02-19T01:46:25;100960.19;;;9.70;67.38
9335;BME280;4706;41.844;26.082;2023-02-19T01:48:51;100970.41;;;9.55;68.15
9335;BME280;4706;41.844;26.082;2023-02-19T01:51:18;100971.53;;;9.54;68.55
9335;BME280;4706;41.844;26.082;2023-02-19T01:53:48;100979.56;;;9.45;68.78
9335;BME280;4706;41.844;26.082;2023-02-19T01:56:16;100974.53;;;9.57;68.63
9335;BME280;4706;41.844;26.082;2023-02-19T01:58:43;100974.28;;;9.54;69.03
9335;BME280;4706;41.844;26.082;2023-02-19T02:01:09;100987.19;;;9.53;68.90
9335;BME280;4706;41.844;26.082;2023-02-19T02:03:37;100976.00;;;9.39;69.49
9335;BME280;4706;41.844;26.082;2023-02-19T02:06:10;100977.63;;;9.45;69.08
9335;BME280;4706;41.844;26.082;2023-02-19T02:08:39;100976.72;;;9.60;68.00
9335;BME280;4706;41.844;26.082;2023-02-19T02:11:25;100981.69;;;9.53;68.08
9335;BME280;4706;41.844;26.082;2023-02-19T02:13:51;100979.31;;;9.41;68.85
9335;BME280;4706;41.844;26.082;2023-02-19T02:16:23;100974.16;;;9.30;68.50
9335;BME280;4706;41.844;26.082;2023-02-19T02:34:26;100962.63;;;9.33;69.07
9335;BME280;4706;41.844;26.082;2023-02-19T02:36:28;100958.03;;;9.13;69.60
9335;BME280;4706;41.844;26.082;2023-02-19T02:38:56;100961.31;;;9.10;70.01
9335;BME280;4706;41.844;26.082;2023-02-19T02:41:23;100961.56;;;9.18;69.08
9335;BME280;4706;41.844;26.082;2023-02-19T02:43:49;100968.97;;;9.23;68.38
9335;BME280;4706;41.844;26.082;2023-02-19T02:46:19;100950.13;;;9.01;68.63
9335;BME280;4706;41.844;26.082;2023-02-19T02:48:49;100979.44;;;9.06;68.82
9335;BME280;4706;41.844;26.082;2023-02-19T02:51:46;100988.25;;;9.03;68.70
9335;BME280;4706;41.844;26.082;2023-02-19T02:57:01;100980.31;;;9.01;68.28
9335;BME280;4706;41.844;26.082;2023-02-19T02:59:30;100982.19;;;9.06;67.87
9335;BME280;4706;41.844;26.082;2023-02-19T03:02:07;100975.63;;;9.02;68.03
9335;BME280;4706;41.844;26.082;2023-02-19T03:05:16;100970.50;;;8.80;68.65
9335;BME280;4706;41.844;26.082;2023-02-19T03:08:08;100972.94;;;8.91;68.27
9335;BME280;4706;41.844;26.082;2023-02-19T03:10:38;100984.72;;;8.87;69.30
9335;BME280;4706;41.844;26.082;2023-02-19T03:13:09;100993.53;;;8.89;69.73
9335;BME280;4706;41.844;26.082;2023-02-19T03:15:59;101002.81;;;8.98;69.51
9335;BME280;4706;41.844;26.082;2023-02-19T03:18:48;100991.56;;;8.99;69.30
9335;BME280;4706;41.844;26.082;2023-02-19T03:21:34;100991.84;;;8.93;69.28
9335;BME280;4706;41.844;26.082;2023-02-19T03:24:03;100991.03;;;8.87;69.83
9335;BME280;4706;41.844;26.082;2023-02-19T03:26:49;100986.66;;;8.86;69.92
9335;BME280;4706;41.844;26.082;2023-02-19T03:29:27;100998.78;;;8.70;70.34
9335;BME280;4706;41.844;26.082;2023-02-19T03:31:56;100986.13;;;8.79;70.13
9335;BME280;4706;41.844;26.082;2023-02-19T03:34:28;100985.81;;;8.96;69.62
9335;BME280;4706;41.844;26.082;2023-02-19T03:37:09;100996.25;;;8.84;70.22
9335;BME280;4706;41.844;26.082;2023-02-19T03:39:36;100998.72;;;8.95;70.34
9335;BME280;4706;41.844;26.082;2023-02-19T03:42:49;101006.09;;;8.95;69.67
9335;BME280;4706;41.844;26.082;2023-02-19T03:45:43;101012.13;;;9.07;69.55
9335;BME280;4706;41.844;26.082;2023-02-19T03:53:30;101032.81;;;8.59;72.29
9335;BME280;4706;41.844;26.082;2023-02-19T03:56:32;101036.63;;;8.52;73.18
9335;BME280;4706;41.844;26.082;2023-02-19T03:59:16;101037.75;;;8.46;73.60
9335;BME280;4706;41.844;26.082;2023-02-19T04:01:47;101022.41;;;8.50;73.92
9335;BME280;4706;41.844;26.082;2023-02-19T04:06:55;101005.91;;;8.61;73.43
9335;BME280;4706;41.844;26.082;2023-02-19T04:09:25;101010.59;;;8.65;73.09
9335;BME280;4706;41.844;26.082;2023-02-19T04:11:54;100991.44;;;8.50;73.58
9335;BME280;4706;41.844;26.082;2023-02-19T04:14:24;101006.78;;;8.41;74.68
9335;BME280;4706;41.844;26.082;2023-02-19T04:17:00;101017.44;;;8.42;74.19
9335;BME280;4706;41.844;26.082;2023-02-19T04:19:30;101022.38;;;8.45;74.05
9335;BME280;4706;41.844;26.082;2023-02-19T04:21:58;101021.00;;;8.33;74.27
9335;BME280;4706;41.844;26.082;2023-02-19T04:24:30;101036.91;;;8.61;73.13
9335;BME280;4706;41.844;26.082;2023-02-19T04:26:57;101028.38;;;8.68;73.13
9335;BME280;4706;41.844;26.082;2023-02-19T04:29:22;101019.91;;;8.59;73.05
9335;BME280;4706;41.844;26.082;2023-02-19T04:31:48;101027.31;;;8.54;73.23
9335;BME280;4706;41.844;26.082;2023-02-19T04:34:13;101023.22;;;8.41;74.00
9335;BME280;4706;41.844;26.082;2023-02-19T04:36:39;101034.47;;;8.39;74.07
9335;BME280;4706;41.844;26.082;2023-02-19T04:39:05;101038.28;;;8.54;73.77
9335;BME280;4706;41.844;26.082;2023-02-19T04:41:32;101035.28;;;8.50;73.23
9335;BME280;4706;41.844;26.082;2023-02-19T04:43:58;101046.25;;;8.55;73.51
9335;BME280;4706;41.844;26.082;2023-02-19T04:46:23;101042.13;;;8.42;73.26
9335;BME280;4706;41.844;26.082;2023-02-19T04:48:49;101043.50;;;8.40;73.52
9335;BME280;4706;41.844;26.082;2023-02-19T04:51:14;101050.63;;;8.46;72.79
9335;BME280;4706;41.844;26.082;2023-02-19T04:53:40;101056.41;;;8.39;73.47
9335;BME280;4706;41.844;26.082;2023-02-19T04:56:13;101066.47;;;8.08;74.98
9335;BME280;4706;41.844;26.082;2023-02-19T04:58:39;101054.16;;;8.06;75.23
9335;BME280;4706;41.844;26.082;2023-02-19T05:01:05;101068.13;;;8.09;75.31
9335;BME280;4706;41.844;26.082;2023-02-19T05:03:31;101076.91;;;8.16;75.29
9335;BME280;4706;41.844;26.082;2023-02-19T05:05:56;101065.41;;;8.24;74.64
9335;BME280;4706;41.844;26.082;2023-02-19T05:08:22;101066.47;;;8.23;74.53
9335;BME280;4706;41.844;26.082;2023-02-19T05:10:47;101074.47;;;8.45;73.30
9335;BME280;4706;41.844;26.082;2023-02-19T05:13:13;101070.34;;;8.33;73.59
9335;BME280;4706;41.844;26.082;2023-02-19T05:15:38;101076.91;;;8.32;73.12
9335;BME280;4706;41.844;26.082;2023-02-19T05:18:04;101079.38;;;8.28;73.29
9335;BME280;4706;41.844;26.082;2023-02-19T05:20:29;101089.53;;;8.27;73.45
9335;BME280;4706;41.844;26.082;2023-02-19T05:22:55;101083.22;;;8.17;73.54
9335;BME280;4706;41.844;26.082;2023-02-19T05:25:20;101091.72;;;8.20;72.99
9335;BME280;4706;41.844;26.082;2023-02-19T05:27:46;101094.50;;;8.41;71.68
9335;BME280;4706;41.844;26.082;2023-02-19T05:30:12;101099.94;;;8.20;72.38
9335;BME280;4706;41.844;26.082;2023-02-19T05:32:37;101106.50;;;8.30;71.27
9335;BME280;4706;41.844;26.082;2023-02-19T05:35:03;101098.56;;;8.13;72.15
9335;BME280;4706;41.844;26.082;2023-02-19T05:37:28;101098.25;;;8.14;72.36
9335;BME280;4706;41.844;26.082;2023-02-19T05:39:54;101105.13;;;8.27;71.76
9335;BME280;4706;41.844;26.082;2023-02-19T05:42:19;101101.56;;;8.21;72.80
9335;BME280;4706;41.844;26.082;2023-02-19T05:44:45;101108.16;;;8.25;72.58
9335;BME280;4706;41.844;26.082;2023-02-19T05:47:10;101113.91;;;8.34;72.50
9335;BME280;4706;41.844;26.082;2023-02-19T05:49:36;101119.19;;;8.51;72.36
9335;BME280;4706;41.844;26.082;2023-02-19T05:52:02;101124.63;;;8.61;72.34
9335;BME280;4706;41.844;26.082;2023-02-19T05:54:29;101128.78;;;8.74;71.81
9335;BME280;4706;41.844;26.082;2023-02-19T05:56:55;101130.97;;;8.82;71.14
9335;BME280;4706;41.844;26.082;2023-02-19T05:59:23;101128.50;;;8.81;71.67
9335;BME280;4706;41.844;26.082;2023-02-19T06:01:50;101135.88;;;8.90;71.52
9335;BME280;4706;41.844;26.082;2023-02-19T06:04:16;101135.34;;;8.93;70.58
9335;BME280;4706;41.844;26.082;2023-02-19T06:06:43;101157.53;;;9.12;70.10
9335;BME280;4706;41.844;26.082;2023-02-19T06:09:09;101150.66;;;9.20;69.91
9335;BME280;4706;41.844;26.082;2023-02-19T06:11:35;101150.69;;;9.15;69.74
9335;BME280;4706;41.844;26.082;2023-02-19T06:14:01;101146.00;;;9.15;70.10
9335;BME280;4706;41.844;26.082;2023-02-19T06:16:27;101132.84;;;9.12;70.27
9335;BME280;4706;41.844;26.082;2023-02-19T06:18:53;101138.31;;;9.17;70.48
9335;BME280;4706;41.844;26.082;2023-02-19T06:21:19;101128.44;;;9.21;70.06
9335;BME280;4706;41.844;26.082;2023-02-19T06:23:45;101135.81;;;9.21;70.52
9335;BME280;4706;41.844;26.082;2023-02-19T06:26:17;101140.75;;;9.34;69.55
9335;BME280;4706;41.844;26.082;2023-02-19T06:28:44;101144.03;;;9.41;69.91
9335;BME280;4706;41.844;26.082;2023-02-19T06:31:10;101141.81;;;9.43;69.65
9335;BME280;4706;41.844;26.082;2023-02-19T06:33:37;101143.47;;;9.49;70.11
9335;BME280;4706;41.844;26.082;2023-02-19T06:36:05;101126.41;;;9.58;69.91
9335;BME280;4706;41.844;26.082;2023-02-19T06:38:32;101141.19;;;9.72;69.12
9335;BME280;4706;41.844;26.082;2023-02-19T06:41:01;101144.94;;;9.91;68.21
9335;BME280;4706;41.844;26.082;2023-02-19T06:43:28;101145.47;;;9.93;68.93
9335;BME280;4706;41.844;26.082;2023-02-19T06:45:57;101146.81;;;9.96;69.10
9335;BME280;4706;41.844;26.082;2023-02-19T06:48:22;101135.75;;;10.11;68.60
9335;BME280;4706;41.844;26.082;2023-02-19T06:50:48;101146.78;;;10.06;68.44
9335;BME280;4706;41.844;26.082;2023-02-19T06:53:13;101147.13;;;9.94;69.20
9335;BME280;4706;41.844;26.082;2023-02-19T06:55:39;101143.00;;;9.92;69.32
9335;BME280;4706;41.844;26.082;2023-02-19T06:58:05;101148.47;;;10.02;69.23
9335;BME280;4706;41.844;26.082;2023-02-19T07:00:32;101145.75;;;9.97;69.77
9335;BME280;4706;41.844;26.082;2023-02-19T07:02:58;101157.00;;;10.01;70.38
9335;BME280;4706;41.844;26.082;2023-02-19T07:05:23;101125.31;;;10.13;70.01
9335;BME280;4706;41.844;26.082;2023-02-19T07:07:49;101137.06;;;10.24;69.93
9335;BME280;4706;41.844;26.082;2023-02-19T07:10:15;101130.66;;;10.39;69.60
9335;BME280;4706;41.844;26.082;2023-02-19T07:12:40;101126.75;;;10.45;69.31
9335;BME280;4706;41.844;26.082;2023-02-19T07:15:06;101120.19;;;10.41;69.92
9335;BME280;4706;41.844;26.082;2023-02-19T07:17:33;101108.88;;;10.48;69.44
9335;BME280;4706;41.844;26.082;2023-02-19T07:19:59;101119.56;;;10.54;69.51
9335;BME280;4706;41.844;26.082;2023-02-19T07:22:25;101118.06;;;10.67;69.22
9335;BME280;4706;41.844;26.082;2023-02-19T07:24:50;101123.16;;;10.84;68.89
9335;BME280;4706;41.844;26.082;2023-02-19T07:27:15;101132.38;;;10.98;68.33
9335;BME280;4706;41.844;26.082;2023-02-19T07:29:41;101124.56;;;11.10;68.24
9335;BME280;4706;41.844;26.082;2023-02-19T07:32:06;101143.59;;;11.31;67.35
9335;BME280;4706;41.844;26.082;2023-02-19T07:34:32;101137.00;;;11.56;66.71
9335;BME280;4706;41.844;26.082;2023-02-19T07:36:57;101136.50;;;11.73;66.93
9335;BME280;4706;41.844;26.082;2023-02-19T07:39:23;101096.22;;;11.77;66.55
9335;BME280;4706;41.844;26.082;2023-02-19T07:41:48;101128.56;;;12.14;65.59
9335;BME280;4706;41.844;26.082;2023-02-19T07:44:14;101142.56;;;12.36;65.76
9335;BME280;4706;41.844;26.082;2023-02-19T07:46:42;101125.19;;;12.55;64.50
9335;BME280;4706;41.844;26.082;2023-02-19T07:49:07;101126.53;;;12.90;63.62
9335;BME280;4706;41.844;26.082;2023-02-19T07:51:33;101129.44;;;13.12;63.00
9335;BME280;4706;41.844;26.082;2023-02-19T07:53:58;101138.72;;;13.35;62.47
9335;BME280;4706;41.844;26.082;2023-02-19T07:56:24;101137.50;;;13.55;61.97
9335;BME280;4706;41.844;26.082;2023-02-19T07:58:49;101138.31;;;13.70;61.20
9335;BME280;4706;41.844;26.082;2023-02-19T08:01:20;101128.03;;;13.84;61.27
9335;BME280;4706;41.844;26.082;2023-02-19T08:04:06;101133.28;;;13.99;61.50
9335;BME280;4706;41.844;26.082;2023-02-19T08:06:32;101135.16;;;14.26;60.34
9335;BME280;4706;41.844;26.082;2023-02-19T08:08:57;101127.81;;;14.44;59.76
9335;BME280;4706;41.844;26.082;2023-02-19T08:11:23;101121.81;;;14.65;59.15
9335;BME280;4706;41.844;26.082;2023-02-19T08:14:07;101118.66;;;14.80;58.41
9335;BME280;4706;41.844;26.082;2023-02-19T08:16:32;101101.09;;;14.85;58.45
9335;BME280;4706;41.844;26.082;2023-02-19T08:18:58;101120.84;;;15.23;57.59
9335;BME280;4706;41.844;26.082;2023-02-19T08:21:23;101119.94;;;15.36;57.34
9335;BME280;4706;41.844;26.082;2023-02-19T08:23:49;101122.38;;;15.69;56.51
9335;BME280;4706;41.844;26.082;2023-02-19T08:26:14;101130.91;;;15.90;56.21
9335;BME280;4706;41.844;26.082;2023-02-19T08:28:41;101128.50;;;16.14;55.89
9335;BME280;4706;41.844;26.082;2023-02-19T08:31:08;101113.34;;;16.29;55.25
9335;BME280;4706;41.844;26.082;2023-02-19T08:33:34;101116.09;;;16.55;54.80
9335;BME280;4706;41.844;26.082;2023-02-19T08:36:02;101111.84;;;16.84;53.67
9335;BME280;4706;41.844;26.082;2023-02-19T08:38:29;101107.53;;;17.04;53.01
9335;BME280;4706;41.844;26.082;2023-02-19T08:40:55;101104.75;;;17.12;52.74
9335;BME280;4706;41.844;26.082;2023-02-19T08:43:20;101111.72;;;17.18;52.43
9335;BME280;4706;41.844;26.082;2023-02-19T08:45:46;101102.44;;;17.14;52.76
9335;BME280;4706;41.844;26.082;2023-02-19T08:48:12;101104.34;;;17.22;52.46
9335;BME280;4706;41.844;26.082;2023-02-19T08:50:38;101098.19;;;17.17;52.98
9335;BME280;4706;41.844;26.082;2023-02-19T08:53:04;101098.94;;;17.26;53.25
9335;BME280;4706;41.844;26.082;2023-02-19T08:55:31;101086.84;;;17.31;53.27
9335;BME280;4706;41.844;26.082;2023-02-19T08:57:56;101084.50;;;17.41;53.21
9335;BME280;4706;41.844;26.082;2023-02-19T09:00:22;101087.19;;;17.59;52.19
9335;BME280;4706;41.844;26.082;2023-02-19T09:02:48;101090.13;;;17.62;51.98
9335;BME280;4706;41.844;26.082;2023-02-19T09:05:14;101074.66;;;17.73;51.10
9335;BME280;4706;41.844;26.082;2023-02-19T09:07:40;101063.31;;;17.87;49.93
9335;BME280;4706;41.844;26.082;2023-02-19T09:10:07;101061.63;;;17.95;50.62
9335;BME280;4706;41.844;26.082;2023-02-19T09:12:34;101055.72;;;18.17;48.76
9335;BME280;4706;41.844;26.082;2023-02-19T09:14:59;101057.25;;;18.27;49.18
9335;BME280;4706;41.844;26.082;2023-02-19T09:17:25;101047.25;;;18.47;47.20
9335;BME280;4706;41.844;26.082;2023-02-19T09:19:51;101038.94;;;18.59;47.85
9335;BME280;4706;41.844;26.082;2023-02-19T09:22:17;101035.66;;;18.90;47.51
9335;BME280;4706;41.844;26.082;2023-02-19T09:24:43;101038.25;;;19.20;46.85
9335;BME280;4706;41.844;26.082;2023-02-19T09:27:16;101015.47;;;19.18;46.22
9335;BME280;4706;41.844;26.082;2023-02-19T09:29:42;101031.41;;;19.42;46.35
9335;BME280;4706;41.844;26.082;2023-02-19T09:32:07;101036.97;;;19.54;45.71
9335;BME280;4706;41.844;26.082;2023-02-19T09:34:32;101036.75;;;19.72;45.28
9335;BME280;4706;41.844;26.082;2023-02-19T09:36:58;101030.81;;;19.61;45.01
9335;BME280;4706;41.844;26.082;2023-02-19T09:39:23;101037.06;;;19.58;44.85
9335;BME280;4706;41.844;26.082;2023-02-19T09:41:57;101037.78;;;19.79;45.49
9335;BME280;4706;41.844;26.082;2023-02-19T09:44:29;101023.63;;;20.00;45.45
9335;BME280;4706;41.844;26.082;2023-02-19T09:46:57;101025.66;;;20.28;43.54
9335;BME280;4706;41.844;26.082;2023-02-19T09:49:31;101022.78;;;20.40;43.70
9335;BME280;4706;41.844;26.082;2023-02-19T09:52:14;101008.53;;;20.57;42.46
9335;BME280;4706;41.844;26.082;2023-02-19T09:54:43;101008.47;;;20.70;42.06
9335;BME280;4706;41.844;26.082;2023-02-19T09:57:18;100995.28;;;20.86;41.23
9335;BME280;4706;41.844;26.082;2023-02-19T10:00:06;101004.75;;;21.13;41.05
9335;BME280;4706;41.844;26.082;2023-02-19T10:02:38;101002.13;;;21.36;40.57
9335;BME280;4706;41.844;26.082;2023-02-19T10:05:14;100966.81;;;21.31;40.17
9335;BME280;4706;41.844;26.082;2023-02-19T10:07:43;100992.28;;;21.77;39.40
9335;BME280;4706;41.844;26.082;2023-02-19T10:12:39;100973.41;;;22.13;38.59
9335;BME280;4706;41.844;26.082;2023-02-19T10:15:16;100973.50;;;22.36;38.67
9335;BME280;4706;41.844;26.082;2023-02-19T10:17:43;100974.50;;;22.47;38.10
9335;BME280;4706;41.844;26.082;2023-02-19T10:20:14;100958.31;;;22.60;37.90
9335;BME280;4706;41.844;26.082;2023-02-19T10:22:40;100950.16;;;22.74;37.63
9335;BME280;4706;41.844;26.082;2023-02-19T10:25:06;100955.75;;;22.97;37.07
9335;BME280;4706;41.844;26.082;2023-02-19T10:27:31;100947.84;;;23.03;35.23
9335;BME280;4706;41.844;26.082;2023-02-19T10:29:58;100932.34;;;23.13;34.71
9335;BME280;4706;41.844;26.082;2023-02-19T10:32:25;100938.53;;;23.22;34.60
9335;BME280;4706;41.844;26.082;2023-02-19T10:35:21;100924.31;;;23.38;34.25
9335;BME280;4706;41.844;26.082;2023-02-19T10:37:48;100925.25;;;23.19;31.05
9335;BME280;4706;41.844;26.082;2023-02-19T10:40:23;100902.44;;;23.24;30.68
9335;BME280;4706;41.844;26.082;2023-02-19T10:42:53;100895.63;;;23.21;29.76
9335;BME280;4706;41.844;26.082;2023-02-19T10:45:34;100897.69;;;23.28;30.46
9335;BME280;4706;41.844;26.082;2023-02-19T10:48:03;100886.97;;;23.34;29.43
9335;BME280;4706;41.844;26.082;2023-02-19T10:50:32;100886.16;;;23.33;29.37
9335;BME280;4706;41.844;26.082;2023-02-19T10:53:01;100877.41;;;23.38;29.58
9335;BME280;4706;41.844;26.082;2023-02-19T10:55:33;100872.81;;;23.57;29.77
9335;BME280;4706;41.844;26.082;2023-02-19T10:58:23;100862.44;;;23.61;29.08
9335;BME280;4706;41.844;26.082;2023-02-19T11:01:09;100859.66;;;23.64;28.73
9335;BME280;4706;41.844;26.082;2023-02-19T11:03:36;100857.53;;;23.54;28.74
9335;BME280;4706;41.844;26.082;2023-02-19T11:06:03;100853.03;;;23.46;28.89
9335;BME280;4706;41.844;26.082;2023-02-19T11:08:44;100851.56;;;23.56;28.89
9335;BME280;4706;41.844;26.082;2023-02-19T11:11:27;100853.22;;;23.60;28.74
9335;BME280;4706;41.844;26.082;2023-02-19T11:13:56;100848.25;;;23.80;29.18
9335;BME280;4706;41.844;26.082;2023-02-19T11:16:23;100846.41;;;23.95;27.75
9335;BME280;4706;41.844;26.082;2023-02-19T11:19:00;100845.34;;;24.10;27.62
9335;BME280;4706;41.844;26.082;2023-02-19T11:21:28;100844.69;;;24.24;28.23
9335;BME280;4706;41.844;26.082;2023-02-19T11:23:59;100842.47;;;24.44;27.57
9335;BME280;4706;41.844;26.082;2023-02-19T11:26:31;100825.50;;;24.37;27.40
9335;BME280;4706;41.844;26.082;2023-02-19T11:29:02;100822.66;;;24.33;27.00
9335;BME280;4706;41.844;26.082;2023-02-19T11:31:36;100827.88;;;24.31;26.73
9335;BME280;4706;41.844;26.082;2023-02-19T11:34:02;100834.84;;;24.44;27.04
9335;BME280;4706;41.844;26.082;2023-02-19T11:36:35;100836.06;;;24.47;27.16
9335;BME280;4706;41.844;26.082;2023-02-19T11:46:54;100833.78;;;24.60;26.94
9335;BME280;4706;41.844;26.082;2023-02-19T11:52:03;100822.69;;;24.88;26.72
9335;BME280;4706;41.844;26.082;2023-02-19T11:54:48;100814.25;;;24.85;26.95
9335;BME280;4706;41.844;26.082;2023-02-19T11:57:37;100818.72;;;24.96;26.50
9335;BME280;4706;41.844;26.082;2023-02-19T12:00:23;100811.72;;;24.65;27.00
9335;BME280;4706;41.844;26.082;2023-02-19T12:03:15;100802.34;;;24.51;26.54
9335;BME280;4706;41.844;26.082;2023-02-19T12:16:46;100785.56;;;23.72;28.35
9335;BME280;4706;41.844;26.082;2023-02-19T12:35:54;100749.66;;;23.92;27.79
9335;BME280;4706;41.844;26.082;2023-02-19T12:41:23;100759.16;;;23.81;27.46
9335;BME280;4706;41.844;26.082;2023-02-19T12:44:18;100759.50;;;23.72;27.70
9335;BME280;4706;41.844;26.082;2023-02-19T12:46:52;100755.19;;;23.82;27.39
9335;BME280;4706;41.844;26.082;2023-02-19T12:49:39;100747.97;;;23.84;27.78
9335;BME280;4706;41.844;26.082;2023-02-19T12:52:15;100748.09;;;23.98;27.64
9335;BME280;4706;41.844;26.082;2023-02-19T12:54:45;100744.84;;;23.93;27.86
9335;BME280;4706;41.844;26.082;2023-02-19T12:57:18;100739.50;;;23.81;28.40
9335;BME280;4706;41.844;26.082;2023-02-19T12:59:52;100735.31;;;23.64;28.92
9335;BME280;4706;41.844;26.082;2023-02-19T13:02:43;100737.72;;;23.65;29.47
9335;BME280;4706;41.844;26.082;2023-02-19T13:05:18;100739.84;;;23.72;28.80
9335;BME280;4706;41.844;26.082;2023-02-19T13:08:07;100741.44;;;23.73;28.62
9335;BME280;4706;41.844;26.082;2023-02-19T13:10:50;100731.94;;;23.85;29.18
9335;BME280;4706;41.844;26.082;2023-02-19T13:13:23;100734.09;;;24.06;29.15
9335;BME280;4706;41.844;26.082;2023-02-19T13:15:54;100727.81;;;24.19;29.31
9335;BME280;4706;41.844;26.082;2023-02-19T13:18:45;100723.00;;;24.20;29.28
9335;BME280;4706;41.844;26.082;2023-02-19T13:21:13;100719.34;;;24.16;29.34
9335;BME280;4706;41.844;26.082;2023-02-19T13:24:02;100724.97;;;24.16;29.24
9335;BME280;4706;41.844;26.082;2023-02-19T13:26:54;100716.16;;;24.21;28.78
9335;BME280;4706;41.844;26.082;2023-02-19T13:35:24;100712.97;;;24.22;27.65
9335;BME280;4706;41.844;26.082;2023-02-19T13:37:53;100710.50;;;24.17;28.06
9335;BME280;4706;41.844;26.082;2023-02-19T13:40:31;100705.72;;;24.21;27.57
9335;BME280;4706;41.844;26.082;2023-02-19T13:43:03;100690.88;;;24.21;27.85
9335;BME280;4706;41.844;26.082;2023-02-19T13:45:37;100696.06;;;24.15;28.80
9335;BME280;4706;41.844;26.082;2023-02-19T13:50:38;100693.97;;;24.05;29.38
9335;BME280;4706;41.844;26.082;2023-02-19T13:59:37;100689.28;;;23.72;29.92
9335;BME280;4706;41.844;26.082;2023-02-19T14:14:48;100667.63;;;22.94;32.37
9335;BME280;4706;41.844;26.082;2023-02-19T14:30:53;100655.19;;;22.35;32.46
9335;BME280;4706;41.844;26.082;2023-02-19T14:36:28;100652.38;;;22.09;33.33
9335;BME280;4706;41.844;26.082;2023-02-19T14:39:11;100656.22;;;21.97;33.48
9335;BME280;4706;41.844;26.082;2023-02-19T14:41:41;100649.88;;;21.77;33.75
9335;BME280;4706;41.844;26.082;2023-02-19T14:44:18;100646.72;;;21.78;33.75
9335;BME280;4706;41.844;26.082;2023-02-19T14:47:06;100641.25;;;21.86;33.22
9335;BME280;4706;41.844;26.082;2023-02-19T14:49:49;100640.72;;;21.80;33.32
9335;BME280;4706;41.844;26.082;2023-02-19T14:52:26;100639.00;;;21.72;33.78
9335;BME280;4706;41.844;26.082;2023-02-19T14:54:58;100644.06;;;21.63;33.85
9335;BME280;4706;41.844;26.082;2023-02-19T14:57:30;100641.25;;;21.63;33.86
9335;BME280;4706;41.844;26.082;2023-02-19T14:59:59;100637.63;;;21.62;37.07
9335;BME280;4706;41.844;26.082;2023-02-19T15:02:27;100634.16;;;21.46;39.01
9335;BME280;4706;41.844;26.082;2023-02-19T15:04:53;100640.81;;;21.38;39.95
9335;BME280;4706;41.844;26.082;2023-02-19T15:07:22;100634.19;;;21.26;40.39
9335;BME280;4706;41.844;26.082;2023-02-19T15:09:50;100640.41;;;21.16;40.76
9335;BME280;4706;41.844;26.082;2023-02-19T15:12:22;100635.41;;;21.06;41.15
9335;BME280;4706;41.844;26.082;2023-02-19T15:14:52;100639.63;;;20.96;41.79
9335;BME280;4706;41.844;26.082;2023-02-19T15:17:28;100637.50;;;20.90;42.11